Time;durP1;ratioP1;P1;durP2;ratioP2;P2;SDS_P1;SDS_P2;PMS_P1;PMS_P2;Temp;Humidity;BMP_temperature;BMP_pressure;BME280_temperature;BME280_humidity;BME280_pressure;Samples;Min_cycle;Max_cycle;Signal;HPM_P1;HPM_P2
2022/07/14 00:01:55;;;;;;;9.23;7.47;;;;;;;21.31;49.61;93816.81;4961660;28;20129;-94
2022/07/14 00:04:21;;;;;;;9.00;7.50;;;;;;;21.31;49.64;93811.31;4954026;28;20048;-96
2022/07/14 00:06:46;;;;;;;9.20;7.20;;;;;;;21.31;49.63;93820.31;4930034;28;20150;-94
2022/07/14 00:09:12;;;;;;;8.45;6.97;;;;;;;21.31;49.62;93814.81;4973165;28;20068;-95
2022/07/14 00:11:37;;;;;;;8.45;7.07;;;;;;;21.30;49.84;93810.56;4985322;28;20374;-94
2022/07/14 00:14:03;;;;;;;8.05;6.82;;;;;;;21.32;49.64;93810.06;5002690;28;20167;-94
2022/07/14 00:16:29;;;;;;;8.95;6.63;;;;;;;21.31;49.64;93806.56;4969293;28;20120;-94
2022/07/14 00:18:54;;;;;;;9.70;6.65;;;;;;;21.31;49.59;93800.31;4943032;28;20091;-95
2022/07/14 00:21:20;;;;;;;8.38;6.95;;;;;;;21.31;49.66;93803.81;4933541;28;20052;-94
2022/07/14 00:23:46;;;;;;;8.85;7.05;;;;;;;21.30;49.56;93799.56;4941711;28;20041;-94
2022/07/14 00:26:12;;;;;;;8.75;6.85;;;;;;;21.30;49.61;93805.06;4963429;28;20242;-94
2022/07/14 00:28:37;;;;;;;8.40;7.18;;;;;;;21.30;49.69;93796.81;4962469;28;20065;-95
2022/07/14 00:31:07;;;;;;;6.78;6.07;;;;;;;21.29;49.69;93803.59;4946878;28;20922;-94
2022/07/14 00:33:33;;;;;;;8.18;6.68;;;;;;;21.29;49.72;93795.34;4934096;28;20476;-95
2022/07/14 00:35:58;;;;;;;8.05;6.65;;;;;;;21.30;49.78;93790.59;4934269;28;20038;-94
2022/07/14 00:38:24;;;;;;;7.10;6.20;;;;;;;21.30;49.71;93779.59;4932882;28;20139;-94
2022/07/14 00:40:49;;;;;;;7.05;6.05;;;;;;;21.30;49.72;93785.09;4954584;28;20129;-96
2022/07/14 00:43:15;;;;;;;6.75;5.85;;;;;;;21.28;49.68;93791.09;4962819;28;20038;-94
2022/07/14 00:45:40;;;;;;;6.95;5.40;;;;;;;21.28;49.79;93788.34;4952516;28;20033;-94
2022/07/14 00:48:06;;;;;;;7.65;6.60;;;;;;;21.29;49.71;93789.09;4934923;28;20049;-95
2022/07/14 00:50:32;;;;;;;6.35;5.70;;;;;;;21.29;49.62;93789.09;4960654;28;20095;-94
2022/07/14 00:52:58;;;;;;;7.15;5.75;;;;;;;21.28;49.64;93790.34;4948974;28;20041;-94
2022/07/14 00:55:24;;;;;;;7.97;6.13;;;;;;;21.29;49.53;93791.84;4995947;28;20140;-94
2022/07/14 00:57:50;;;;;;;6.50;5.20;;;;;;;21.27;49.48;93786.88;4979099;28;20032;-95
2022/07/14 01:00:16;;;;;;;6.47;5.50;;;;;;;21.29;49.83;93789.09;5008266;28;20044;-95
2022/07/14 01:02:42;;;;;;;7.20;5.60;;;;;;;21.28;49.71;93785.59;4981120;28;20056;-94
2022/07/14 01:05:08;;;;;;;6.88;5.25;;;;;;;21.29;49.60;93783.59;4961584;28;20126;-95
2022/07/14 01:07:34;;;;;;;6.97;5.32;;;;;;;21.27;50.01;93781.38;4949372;28;21184;-95
2022/07/14 01:09:59;;;;;;;7.35;5.22;;;;;;;21.27;49.54;93783.38;4955924;28;20527;-95
2022/07/14 01:12:25;;;;;;;7.13;5.72;;;;;;;21.28;49.59;93782.84;4962776;28;20053;-94
2022/07/14 01:14:51;;;;;;;7.10;5.43;;;;;;;21.29;49.46;93783.59;4963037;28;20117;-95
2022/07/14 01:17:17;;;;;;;6.88;5.18;;;;;;;21.27;49.52;93786.88;4943398;28;20099;-96
2022/07/14 01:19:43;;;;;;;7.35;5.90;;;;;;;21.28;49.64;93774.59;4945843;28;20556;-94
2022/07/14 01:22:08;;;;;;;6.35;4.80;;;;;;;21.26;49.64;93777.13;4952199;28;20056;-94
2022/07/14 01:24:34;;;;;;;5.63;5.03;;;;;;;21.26;49.64;93777.13;4946140;28;20048;-95
2022/07/14 01:26:59;;;;;;;5.68;4.82;;;;;;;21.27;49.64;93770.38;4981177;28;20064;-94
2022/07/14 01:29:26;;;;;;;5.20;4.70;;;;;;;21.27;49.34;93769.63;4980418;28;20460;-94
2022/07/14 01:31:51;;;;;;;5.60;4.93;;;;;;;21.26;49.73;93776.38;4950426;28;20582;-95
2022/07/14 01:34:17;;;;;;;4.70;4.20;;;;;;;21.27;49.59;93772.38;4964388;28;20649;-94
2022/07/14 01:36:43;;;;;;;5.10;4.35;;;;;;;;;;4955682;28;20138;-95
2022/07/14 01:39:08;;;;;;;5.70;4.45;;;;;;;21.26;49.76;93771.63;4963167;28;20068;-94
2022/07/14 01:41:33;;;;;;;7.10;4.63;;;;;;;21.24;49.72;93765.16;4996011;28;20305;-94
2022/07/14 01:43:59;;;;;;;4.32;3.92;;;;;;;21.26;49.61;93765.38;4995463;28;20120;-94
2022/07/14 01:46:25;;;;;;;4.93;4.10;;;;;;;21.24;49.61;93768.66;4992570;28;20698;-94
2022/07/14 01:48:50;;;;;;;5.63;4.18;;;;;;;21.26;49.95;93773.63;4976104;28;20041;-96
2022/07/14 01:51:16;;;;;;;5.47;4.20;;;;;;;21.24;49.73;93771.41;4967473;28;20065;-94
2022/07/14 01:53:41;;;;;;;4.32;3.88;;;;;;;21.26;49.67;93763.38;4969015;28;20580;-96
2022/07/14 01:56:08;;;;;;;5.05;4.55;;;;;;;21.24;49.92;93760.41;4974616;28;20041;-94
2022/07/14 01:58:33;;;;;;;4.68;4.18;;;;;;;21.26;49.66;93763.38;4995798;28;20045;-95
2022/07/14 02:03:45;;;;;;;4.95;4.45;;;;;;;21.26;49.66;93760.63;4987982;28;20130;-94
2022/07/14 02:06:10;;;;;;;4.45;3.75;;;;;;;21.24;49.59;93756.91;4981359;28;20981;-94
2022/07/14 02:08:36;;;;;;;4.55;3.97;;;;;;;21.24;49.54;93740.41;4924177;28;20042;-96
2022/07/14 02:13:45;;;;;;;5.45;4.32;;;;;;;21.24;49.71;93737.66;4967735;28;20049;-94
2022/07/14 02:16:11;;;;;;;4.78;4.18;;;;;;;21.24;49.68;93745.91;4956234;28;20478;-95
2022/07/14 02:18:36;;;;;;;4.57;4.03;;;;;;;21.23;49.62;93747.19;4939340;28;20406;-95
2022/07/14 02:21:02;;;;;;;4.93;3.97;;;;;;;21.23;49.63;93747.91;4912826;28;20045;-95
2022/07/14 02:23:27;;;;;;;4.00;3.47;;;;;;;21.23;49.71;93753.41;4896557;28;21252;-94
2022/07/14 02:25:53;;;;;;;4.32;3.88;;;;;;;21.23;49.74;93745.16;4908613;28;20035;-94
2022/07/14 02:28:19;;;;;;;4.30;3.90;;;;;;;21.23;49.69;93744.44;4922193;28;20597;-96
2022/07/14 02:30:45;;;;;;;4.07;3.60;;;;;;;21.22;49.74;93751.22;4927100;28;20497;-94
2022/07/14 02:33:10;;;;;;;4.05;3.55;;;;;;;21.22;49.58;93740.22;4896212;28;20081;-95
2022/07/14 02:35:36;;;;;;;3.90;3.35;;;;;;;21.22;49.76;93746.44;4923669;28;20602;-95
2022/07/14 02:38:03;;;;;;;4.55;3.80;;;;;;;21.23;49.67;93738.94;4897373;28;20043;-96
2022/07/14 02:40:28;;;;;;;3.92;3.20;;;;;;;21.23;49.89;93741.69;4957719;28;20041;-95
2022/07/14 02:42:54;;;;;;;4.22;2.97;;;;;;;21.22;49.69;93745.72;4983676;28;20496;-94
2022/07/14 02:45:19;;;;;;;5.32;3.78;;;;;;;21.22;49.67;93742.97;4984098;28;20048;-94
2022/07/14 02:47:45;;;;;;;3.67;3.15;;;;;;;21.22;49.51;93751.22;4978499;28;20033;-94
2022/07/14 02:50:10;;;;;;;3.35;3.03;;;;;;;21.20;49.54;93744.22;5010144;28;20033;-95
2022/07/14 02:52:36;;;;;;;3.50;2.90;;;;;;;21.20;49.65;93738.00;4950724;28;20045;-94
2022/07/14 02:55:02;;;;;;;4.68;3.53;;;;;;;21.23;49.69;93739.66;4953314;28;20076;-95
2022/07/14 02:57:28;;;;;;;4.18;3.22;;;;;;;21.22;49.61;93746.44;4993754;28;20040;-95
2022/07/14 02:59:54;;;;;;;3.47;3.15;;;;;;;21.22;49.80;93734.72;4981884;28;20354;-95
2022/07/14 03:02:20;;;;;;;3.95;3.17;;;;;;;21.23;49.73;93738.94;5002116;28;20567;-95
2022/07/14 03:04:45;;;;;;;4.25;3.25;;;;;;;21.20;49.64;93738.00;4951043;28;20155;-94
2022/07/14 03:07:11;;;;;;;3.45;2.83;;;;;;;21.20;49.54;93729.75;4950446;28;20044;-95
2022/07/14 03:09:36;;;;;;;4.28;2.90;;;;;;;21.20;49.74;93733.22;4983391;28;20045;-96
2022/07/14 03:12:02;;;;;;;3.17;2.75;;;;;;;21.20;49.56;93729.75;4962945;28;20049;-94
2022/07/14 03:14:27;;;;;;;3.30;2.97;;;;;;;21.20;49.69;93724.97;4980798;28;20072;-94
2022/07/14 03:16:53;;;;;;;4.18;3.15;;;;;;;21.20;49.75;93727.72;4964488;28;20061;-95
2022/07/14 03:19:18;;;;;;;3.33;3.03;;;;;;;21.20;49.50;93730.47;4937118;28;20045;-94
2022/07/14 03:21:44;;;;;;;3.90;3.05;;;;;;;21.20;49.63;93727.72;4931193;28;20588;-94
2022/07/14 03:24:09;;;;;;;3.58;3.28;;;;;;;21.20;49.55;93733.22;4933155;28;20672;-95
2022/07/14 03:26:35;;;;;;;4.45;3.08;;;;;;;21.20;49.64;93733.22;4956927;28;20104;-94
2022/07/14 03:29:01;;;;;;;3.28;2.97;;;;;;;21.18;49.51;93726.75;4960382;28;20068;-95
2022/07/14 03:31:27;;;;;;;3.88;2.78;;;;;;;21.19;49.63;93731.72;4991358;28;20046;-95
2022/07/14 03:33:53;;;;;;;3.47;2.47;;;;;;;21.20;49.44;93735.25;4932292;28;20315;-95
2022/07/14 03:36:20;;;;;;;3.45;2.72;;;;;;;21.19;49.55;93736.47;4939702;28;20077;-95
2022/07/14 03:38:46;;;;;;;3.20;2.40;;;;;;;21.20;49.41;93735.97;4928264;28;20272;-94
2022/07/14 03:41:12;;;;;;;2.88;2.60;;;;;;;21.19;49.33;93726.22;4929797;28;20058;-95
2022/07/14 03:43:37;;;;;;;3.45;2.75;;;;;;;21.20;49.58;93727.72;4988410;28;20460;-93
2022/07/14 03:46:03;;;;;;;13.30;6.32;;;;;;;21.25;49.50;93733.66;4961292;28;20108;-94
2022/07/14 03:48:28;;;;;;;7.07;3.13;;;;;;;21.23;49.47;93738.94;4947392;28;20057;-92
2022/07/14 03:50:55;;;;;;;5.75;2.80;;;;;;;21.23;49.56;93731.41;4950851;28;21230;-94
2022/07/14 03:53:20;;;;;;;3.97;2.40;;;;;;;21.29;49.62;93728.59;4954042;28;20504;-94
2022/07/14 03:55:46;;;;;;;3.13;2.60;;;;;;;21.24;49.42;93732.16;4958536;28;20038;-91
2022/07/14 03:58:11;;;;;;;2.58;2.25;;;;;;;21.24;49.39;93727.41;4987865;28;20065;-94
2022/07/14 04:00:37;;;;;;;2.78;2.47;;;;;;;21.26;49.39;93729.63;4985625;28;20041;-94
2022/07/14 04:03:03;;;;;;;3.60;2.60;;;;;;;21.24;49.29;93734.91;4998273;28;20591;-95
2022/07/14 04:05:28;;;;;;;4.63;2.65;;;;;;;21.20;47.07;93735.25;4954146;28;20053;-95
2022/07/14 04:07:54;;;;;;;3.90;3.47;;;;;;;21.16;46.49;93746.50;4977137;28;20037;-94
2022/07/14 04:10:20;;;;;;;5.60;3.10;;;;;;;21.12;45.62;93742.56;5002016;28;20064;-94
2022/07/14 04:12:46;;;;;;;6.35;3.30;;;;;;;21.10;45.20;93739.59;4987352;28;20459;-94
2022/07/14 04:15:13;;;;;;;4.15;3.00;;;;;;;21.07;45.00;93735.88;5036371;28;20042;-94
2022/07/14 04:17:38;;;;;;;5.43;3.17;;;;;;;21.06;44.75;93747.38;4980220;28;20117;-94
2022/07/14 04:20:04;;;;;;;7.78;3.55;;;;;;;21.13;44.38;93747.53;4967171;28;20042;-93
2022/07/14 04:22:29;;;;;;;7.20;2.65;;;;;;;21.12;44.48;93750.81;4970117;28;21256;-92
2022/07/14 04:24:55;;;;;;;7.35;6.65;;;;;;;21.10;44.58;93739.59;4983213;28;20040;-94
2022/07/14 04:27:29;;;;;;;2.60;2.40;;;;;;;21.15;44.65;93745.00;5026866;28;20034;-95
2022/07/14 04:29:56;;;;;;;7.10;4.03;;;;;;;21.12;44.79;93746.06;5016609;28;20045;-94
2022/07/14 04:32:23;;;;;;;10.13;5.32;;;;;;;21.18;44.17;93745.97;4969484;28;20073;-95
2022/07/14 04:34:48;;;;;;;8.20;3.60;;;;;;;21.15;44.27;93744.28;4948979;28;20042;-91
2022/07/14 04:37:16;;;;;;;13.35;3.50;;;;;;;21.18;44.43;93737.72;4936026;28;20061;-94
2022/07/14 04:39:48;;;;;;;17.70;3.63;;;;;;;21.17;44.54;93744.50;4977140;23;20060;-94
2022/07/14 04:42:21;;;;;;;5.03;3.17;;;;;;;21.22;44.91;93742.97;4996340;28;20041;-93
2022/07/14 04:44:48;;;;;;;98.38;68.82;;;;;;;21.22;45.04;93740.94;5013325;28;20052;-89
2022/07/14 04:47:22;;;;;;;12.77;7.47;;;;;;;21.24;44.66;93737.66;5003520;28;20032;-93
2022/07/14 04:52:42;;;;;;;8.77;4.97;;;;;;;21.27;44.41;93736.63;5017698;28;20051;-88
2022/07/14 04:55:09;;;;;;;11.02;4.53;;;;;;;21.26;44.05;93743.38;5010408;28;20057;-88
2022/07/14 04:57:38;;;;;;;14.60;3.80;;;;;;;21.27;44.14;93751.13;5055484;28;20016;-92
2022/07/14 05:00:05;;;;;;;11.32;4.72;;;;;;;21.24;43.79;93745.91;5006133;28;20045;-91
2022/07/14 05:02:41;;;;;;;9.52;3.35;;;;;;;21.19;43.82;93750.97;4972446;28;20073;-92
2022/07/14 05:05:13;;;;;;;36.60;5.43;;;;;;;21.23;43.27;93744.44;4932439;23;20025;-93
2022/07/14 05:08:01;;;;;;;20.90;5.78;;;;;;;21.23;42.83;93736.19;5056490;28;20067;-94
2022/07/14 05:10:27;;;;;;;47.42;9.65;;;;;;;21.28;42.63;93735.38;5040811;28;20045;-94
2022/07/14 05:13:08;;;;;;;38.63;17.67;;;;;;;21.24;43.15;93735.66;5055084;28;20042;-93
2022/07/14 05:15:38;;;;;;;40.90;19.00;;;;;;;21.24;42.90;93737.66;4993803;28;20145;-92
2022/07/14 05:18:04;;;;;;;60.15;26.80;;;;;;;21.24;42.61;93738.41;4934904;28;20134;-91
2022/07/14 05:20:29;;;;;;;64.38;26.92;;;;;;;21.18;42.82;93732.97;4930921;28;20050;-91
2022/07/14 05:22:58;;;;;;;38.80;19.67;;;;;;;21.18;42.82;93746.72;4930333;28;20110;-93
2022/07/14 05:25:24;;;;;;;42.10;19.90;;;;;;;21.19;42.78;93741.97;4902004;29;20149;-95
2022/07/14 05:27:50;;;;;;;47.28;18.88;;;;;;;21.21;43.06;93733.97;4894035;29;20115;-93
2022/07/14 05:30:16;;;;;;;43.28;20.88;;;;;;;21.22;43.15;93737.47;4870416;29;21905;-91
2022/07/14 05:32:41;;;;;;;64.60;24.70;;;;;;;21.26;43.52;93735.13;4881343;29;20062;-90
2022/07/14 05:35:08;;;;;;;40.60;20.05;;;;;;;21.26;43.51;93732.38;4862692;29;20064;-92
2022/07/14 05:37:34;;;;;;;53.20;24.83;;;;;;;21.22;43.97;93738.19;4878736;29;20488;-92
2022/07/14 05:40:02;;;;;;;31.65;16.05;;;;;;;21.29;44.13;93734.09;4892093;29;20036;-90
2022/07/14 05:42:28;;;;;;;31.13;14.05;;;;;;;21.19;44.21;93739.22;4858238;29;20079;-94
2022/07/14 05:44:53;;;;;;;36.55;14.20;;;;;;;21.21;43.95;93742.22;4890177;29;20052;-92
2022/07/14 05:47:19;;;;;;;40.03;14.65;;;;;;;21.20;43.62;93741.47;4892721;28;20047;-91
2022/07/14 05:49:44;;;;;;;39.33;14.30;;;;;;;21.23;43.71;93747.91;4924111;28;20543;-93
2022/07/14 05:52:13;;;;;;;34.75;11.95;;;;;;;21.28;43.50;93743.63;4954870;28;20093;-91
2022/07/14 05:54:40;;;;;;;23.50;11.38;;;;;;;21.26;43.76;93746.13;4915444;28;20038;-92
2022/07/14 05:57:05;;;;;;;29.33;10.70;;;;;;;21.26;43.82;93755.13;4913211;28;20109;-91
2022/07/14 05:59:31;;;;;;;25.75;9.68;;;;;;;21.31;43.94;93748.81;4895612;28;20043;-90
2022/07/14 06:01:56;;;;;;;36.63;15.80;;;;;;;21.37;43.91;93746.75;4911621;28;20460;-91
2022/07/14 06:04:22;;;;;;;28.67;12.38;;;;;;;21.45;44.18;93747.59;4927584;28;20139;-90
2022/07/14 06:06:47;;;;;;;17.95;8.05;;;;;;;21.49;43.71;93753.53;4933593;28;20418;-91
2022/07/14 06:09:13;;;;;;;25.33;8.55;;;;;;;21.60;43.61;93744.41;4931361;28;21009;-88
2022/07/14 06:11:41;;;;;;;15.40;6.72;;;;;;;21.66;43.47;93752.53;4916321;28;21067;-91
2022/07/14 06:14:07;;;;;;;16.88;7.82;;;;;;;21.70;43.65;93750.97;4954419;28;20105;-92
2022/07/14 06:16:33;;;;;;;22.27;10.00;;;;;;;21.71;43.85;93755.22;4951554;28;20054;-89
2022/07/14 06:18:58;;;;;;;61.47;12.32;;;;;;;21.67;44.04;93754.03;4905705;28;20505;-88
2022/07/14 06:21:24;;;;;;;32.03;9.40;;;;;;;21.67;43.64;93751.28;4963146;28;20048;-90
2022/07/14 06:23:50;;;;;;;34.47;12.57;;;;;;;21.66;43.63;93756.03;4973885;28;20055;-88
2022/07/14 06:26:15;;;;;;;56.35;24.98;;;;;;;21.68;43.63;93737.00;4972600;28;20041;-86
2022/07/14 06:28:41;;;;;;;81.68;41.15;;;;;;;21.70;43.42;93747.47;4970699;28;20041;-88
2022/07/14 06:31:07;;;;;;;64.47;37.20;;;;;;;21.71;43.40;93735.22;4985637;28;20083;-88
2022/07/14 06:33:32;;;;;;;108.95;57.13;;;;;;;21.69;43.28;93738.47;4978361;28;20064;-89
2022/07/14 06:35:57;;;;;;;93.00;49.45;;;;;;;21.70;43.34;93739.22;4992380;28;20651;-88
2022/07/14 06:38:23;;;;;;;91.18;45.85;;;;;;;21.74;43.57;93739.66;5010521;28;20865;-89
2022/07/14 06:40:49;;;;;;;69.88;37.05;;;;;;;21.79;43.60;93736.84;4978729;28;20045;-90
2022/07/14 06:43:14;;;;;;;47.10;27.20;;;;;;;21.77;43.75;93731.09;4981061;28;20537;-89
2022/07/14 06:45:40;;;;;;;50.15;26.77;;;;;;;21.78;43.65;93731.84;5005577;28;20036;-89
2022/07/14 06:48:05;;;;;;;106.25;49.50;;;;;;;21.83;43.75;93731.75;5026777;28;20036;-89
2022/07/14 06:50:31;;;;;;;118.85;42.40;;;;;;;21.87;44.09;93736.94;4979795;28;20048;-90
2022/07/14 06:52:56;;;;;;;61.85;28.05;;;;;;;21.89;43.92;93731.66;4988466;28;20040;-90
2022/07/14 06:55:22;;;;;;;57.38;20.67;;;;;;;21.88;43.99;93733.66;4970286;28;20133;-89
2022/07/14 06:57:47;;;;;;;49.47;22.52;;;;;;;21.95;43.74;93737.81;4935962;28;20049;-88
2022/07/14 07:00:14;;;;;;;65.78;25.45;;;;;;;21.94;44.51;93733.56;4947791;28;20049;-88
2022/07/14 07:02:40;;;;;;;78.40;30.67;;;;;;;21.99;44.50;93721.72;4957805;28;20041;-91
2022/07/14 07:07:56;;;;;;;44.58;20.15;;;;;;;21.95;44.74;93732.31;5043830;23;20568;-89
2022/07/14 07:10:21;;;;;;;30.35;14.25;;;;;;;22.02;44.78;93717.22;5014471;28;20721;-89
2022/07/14 07:12:47;;;;;;;36.35;13.82;;;;;;;22.06;44.73;93720.41;4998123;28;20043;-91
2022/07/14 07:15:13;;;;;;;23.85;11.52;;;;;;;22.04;44.95;93718.19;5042292;28;20037;-87
2022/07/14 07:17:39;;;;;;;19.00;9.35;;;;;;;22.06;44.99;93731.41;5039126;28;20494;-92
2022/07/14 07:20:05;;;;;;;28.83;15.00;;;;;;;22.02;44.59;93711.72;5049532;28;20047;-88
2022/07/14 07:22:31;;;;;;;17.83;8.50;;;;;;;22.03;44.68;93724.94;5025216;28;20102;-89
2022/07/14 07:24:56;;;;;;;12.82;5.45;;;;;;;22.02;44.42;93728.97;5019346;28;20037;-89
2022/07/14 07:27:22;;;;;;;8.23;5.00;;;;;;;21.99;44.65;93721.72;5036742;28;20084;-90
2022/07/14 07:29:47;;;;;;;38.13;22.52;;;;;;;21.96;44.46;93716.53;5021593;28;20032;-90
2022/07/14 07:32:12;;;;;;;50.00;22.88;;;;;;;21.94;44.51;93722.56;5052424;28;20048;-87
2022/07/14 07:34:38;;;;;;;29.67;13.20;;;;;;;21.94;45.10;93722.56;5083148;28;20509;-88
2022/07/14 07:37:04;;;;;;;43.08;18.05;;;;;;;21.98;45.40;93716.75;5040082;23;20055;-84
2022/07/14 07:39:29;;;;;;;35.97;15.30;;;;;;;22.00;45.43;93712.25;5043508;28;20047;-90
2022/07/14 07:41:58;;;;;;;43.25;17.10;;;;;;;22.03;45.69;93707.69;5018479;28;20038;-88
2022/07/14 07:44:24;;;;;;;40.40;14.73;;;;;;;22.01;46.06;93710.97;5043260;28;20099;-88
2022/07/14 07:46:49;;;;;;;38.22;12.38;;;;;;;22.04;46.63;93711.94;5059097;28;20055;-88
2022/07/14 07:49:15;;;;;;;36.58;11.02;;;;;;;22.01;46.80;93716.47;5052584;28;20068;-87
2022/07/14 07:51:40;;;;;;;30.42;13.27;;;;;;;22.05;46.80;93716.16;5017145;28;20469;-90
2022/07/14 07:54:06;;;;;;;23.52;9.50;;;;;;;22.08;47.10;93706.84;5031126;28;20040;-89
2022/07/14 07:56:37;;;;;;;16.45;7.95;;;;;;;22.06;47.19;93703.88;5059634;28;20062;-89
2022/07/14 07:59:03;;;;;;;23.05;10.35;;;;;;;22.12;46.96;93705.25;5045945;23;20048;-89
2022/07/14 08:01:29;;;;;;;20.15;8.73;;;;;;;22.06;47.76;93696.38;5027328;28;20037;-89
2022/07/14 08:03:56;;;;;;;22.33;7.20;;;;;;;22.11;47.38;93705.78;5022781;28;20037;-89
2022/07/14 08:06:23;;;;;;;15.00;8.13;;;;;;;22.14;47.24;93705.47;5024357;28;20056;-91
2022/07/14 08:08:49;;;;;;;13.32;6.68;;;;;;;22.08;47.48;93698.59;5012447;28;20041;-89
2022/07/14 08:11:14;;;;;;;11.45;5.40;;;;;;;22.16;47.98;93704.94;4992368;28;20048;-93
2022/07/14 08:13:41;;;;;;;14.80;6.53;;;;;;;22.08;48.21;93698.59;5045524;28;20037;-90
2022/07/14 08:16:07;;;;;;;16.65;9.38;;;;;;;22.15;48.18;93697.94;5021076;28;20064;-90
2022/07/14 08:18:32;;;;;;;14.40;8.77;;;;;;;22.11;48.57;93705.78;5028028;28;20041;-91
2022/07/14 08:20:59;;;;;;;18.15;10.02;;;;;;;22.12;48.63;93701.75;4982184;28;20041;-91
2022/07/14 08:23:26;;;;;;;41.08;21.33;;;;;;;22.14;48.40;93704.72;4997367;28;20041;-91
2022/07/14 08:25:51;;;;;;;53.08;12.45;;;;;;;22.17;48.94;93701.66;5038999;23;20051;-89
2022/07/14 08:28:19;;;;;;;104.72;26.65;;;;;;;22.17;49.13;93698.16;5059302;28;20494;-92
2022/07/14 08:30:44;;;;;;;74.85;30.67;;;;;;;22.18;48.87;93700.38;5081507;28;20034;-93
2022/07/14 08:33:10;;;;;;;68.60;31.90;;;;;;;22.15;49.15;93700.69;5074112;28;20039;-95
2022/07/14 08:35:36;;;;;;;376.45;222.15;;;;;;;22.20;49.40;93692.34;5057832;28;20055;-90
2022/07/14 08:38:02;;;;;;;82.35;48.40;;;;;;;22.21;49.55;93698.59;5074975;28;20599;-88
2022/07/14 08:40:28;;;;;;;71.57;36.78;;;;;;;22.22;48.89;93698.06;5033226;28;20044;-88
2022/07/14 08:42:55;;;;;;;129.73;68.60;;;;;;;22.23;48.81;93704.31;5037446;28;20043;-92
2022/07/14 08:45:24;;;;;;;55.22;32.53;;;;;;;22.24;49.08;93697.53;5031921;28;20130;-86
2022/07/14 08:47:50;;;;;;;56.35;30.52;;;;;;;22.25;49.06;93701.78;5062210;28;20084;-88
2022/07/14 08:50:17;;;;;;;58.13;23.50;;;;;;;22.27;48.80;93702.00;5082423;28;20040;-92
2022/07/14 08:52:43;;;;;;;47.85;19.52;;;;;;;22.27;48.88;93698.50;5051201;28;20118;-86
2022/07/14 08:55:10;;;;;;;56.50;21.30;;;;;;;22.23;48.91;93688.53;5033768;28;20046;-92
2022/07/14 08:57:36;;;;;;;56.03;25.95;;;;;;;22.27;48.74;93690.97;5049594;28;20040;-88
2022/07/14 09:00:09;;;;;;;41.78;19.38;;;;;;;22.29;48.56;93695.97;5062648;23;20029;-92
2022/07/14 09:02:35;;;;;;;21.95;12.50;;;;;;;22.32;47.34;93692.13;5061497;22;20049;-89
2022/07/14 09:05:03;;;;;;;30.77;15.20;;;;;;;22.35;47.08;93696.56;4977710;28;20060;-89
2022/07/14 09:07:33;;;;;;;65.57;22.15;;;;;;;22.32;47.22;93689.38;4964559;28;20119;-88
2022/07/14 09:10:01;;;;;;;72.82;23.33;;;;;;;22.31;47.15;93685.88;4950831;28;20045;-88
2022/07/14 09:12:46;;;;;;;45.72;18.20;;;;;;;22.31;47.65;93688.63;4963033;28;20053;-87
2022/07/14 09:18:04;;;;;;;30.88;10.73;;;;;;;22.32;48.46;93689.38;5061859;22;20048;-88
2022/07/14 09:20:31;;;;;;;9.07;4.93;;;;;;;22.39;48.74;93688.75;5035973;22;20068;-87
2022/07/14 09:22:58;;;;;;;9.80;4.93;;;;;;;22.42;48.59;93693.19;4970420;28;20045;-86
2022/07/14 09:25:26;;;;;;;9.13;4.93;;;;;;;22.39;48.60;93689.47;4980392;28;20038;-91
2022/07/14 09:27:52;;;;;;;10.98;5.45;;;;;;;22.41;48.56;93683.44;4992852;28;21241;-86
2022/07/14 09:30:17;;;;;;;39.40;18.13;;;;;;;22.44;48.88;93685.13;4958070;28;20559;-88
2022/07/14 09:32:43;;;;;;;45.45;17.15;;;;;;;22.47;48.63;93675.81;4950999;28;20041;-86
2022/07/14 09:35:09;;;;;;;28.13;12.65;;;;;;;22.50;48.82;93683.78;4985261;28;20057;-86
2022/07/14 09:37:37;;;;;;;27.85;8.50;;;;;;;22.50;48.32;93680.28;4989404;28;20106;-89
2022/07/14 09:40:03;;;;;;;15.07;7.03;;;;;;;22.51;48.44;93679.75;4963015;28;20037;-90
2022/07/14 09:42:52;;;;;;;14.98;4.85;;;;;;;22.48;48.51;93669.78;4984307;28;20156;-85
2022/07/14 09:45:20;;;;;;;8.75;4.18;;;;;;;22.54;47.92;93675.91;5030136;28;20064;-87
2022/07/14 09:48:00;;;;;;;7.28;4.18;;;;;;;22.52;48.05;93672.94;5028791;28;20048;-88
2022/07/14 09:50:32;;;;;;;8.52;3.70;;;;;;;22.52;48.04;93674.94;5063927;23;20048;-93
2022/07/14 09:52:58;;;;;;;18.02;7.00;;;;;;;22.54;48.14;93670.38;5094330;28;20051;-90
2022/07/14 09:55:26;;;;;;;24.63;11.27;;;;;;;22.60;47.73;93669.53;5093146;28;20038;-86
2022/07/14 09:57:51;;;;;;;31.00;13.45;;;;;;;22.63;47.84;93663.72;5062667;28;20036;-90
2022/07/14 10:00:19;;;;;;;30.90;12.52;;;;;;;22.63;48.19;93666.47;5087428;23;20056;-87
2022/07/14 10:02:44;;;;;;;12.15;8.23;;;;;;;22.63;47.79;93669.22;5088989;28;20050;-87
2022/07/14 10:05:10;;;;;;;16.05;6.90;;;;;;;22.62;47.97;93672.50;5100753;23;20044;-87
2022/07/14 10:07:38;;;;;;;4.80;3.75;;;;;;;22.64;47.98;93672.72;5039852;28;20028;-88
2022/07/14 10:10:12;;;;;;;4.97;3.08;;;;;;;22.65;47.12;93671.44;5027591;23;20513;-89
2022/07/14 10:12:39;;;;;;;3.63;2.55;;;;;;;22.70;46.99;93659.56;5004170;28;20050;-93
2022/07/14 10:15:08;;;;;;;6.40;2.50;;;;;;;22.72;46.82;93660.53;5020994;28;20057;-89
2022/07/14 10:17:35;;;;;;;2.40;2.17;;;;;;;22.73;46.80;93659.25;5043483;28;20030;-93
2022/07/14 10:20:01;;;;;;;5.03;1.80;;;;;;;22.72;46.88;93659.78;5022086;28;20057;-89
2022/07/14 10:22:26;;;;;;;3.97;2.13;;;;;;;22.77;46.67;93651.41;5003733;28;20122;-96
2022/07/14 10:24:52;;;;;;;2.58;1.70;;;;;;;22.78;46.94;93652.88;5006077;28;20037;-96
2022/07/14 10:27:21;;;;;;;2.33;1.58;;;;;;;22.80;46.54;93652.34;5009469;28;20042;-91
2022/07/14 10:29:53;;;;;;;2.30;1.50;;;;;;;22.78;46.55;93650.13;5031825;28;20400;-93
2022/07/14 10:32:33;;;;;;;5.55;2.20;;;;;;;22.78;46.46;93632.84;5018061;28;20037;-94
2022/07/14 10:35:01;;;;;;;2.08;1.65;;;;;;;22.79;46.67;93643.34;5004435;28;20045;-94
2022/07/14 10:37:36;;;;;;;2.67;1.60;;;;;;;22.77;46.84;93634.09;5021101;28;20065;-89
2022/07/14 10:40:12;;;;;;;1.70;1.60;;;;;;;22.77;47.10;93634.88;5017383;28;20037;-89
2022/07/14 10:42:57;;;;;;;2.13;1.55;;;;;;;22.78;45.95;93639.09;4968417;28;20046;-88
2022/07/14 10:45:22;;;;;;;4.28;1.58;;;;;;;22.80;46.19;93631.03;5061126;28;20045;-90
2022/07/14 10:47:52;;;;;;;3.58;1.48;;;;;;;22.79;45.88;93628.81;5021302;28;20048;-92
2022/07/14 10:50:25;;;;;;;8.40;2.60;;;;;;;22.80;45.73;93614.50;5045080;28;20033;-91
2022/07/14 10:52:53;;;;;;;13.05;3.33;;;;;;;22.79;46.15;93620.56;5003742;28;20037;-92
2022/07/14 10:55:22;;;;;;;10.32;4.63;;;;;;;22.79;46.28;93628.81;5014389;28;20052;-90
2022/07/14 10:58:00;;;;;;;11.30;4.20;;;;;;;22.77;46.70;93621.09;4996496;28;20432;-89
2022/07/14 11:00:44;;;;;;;12.82;6.85;;;;;;;22.83;47.75;93613.44;5039751;28;20120;-91
2022/07/14 11:03:22;;;;;;;12.98;6.97;;;;;;;22.91;46.72;93610.78;5014606;28;20057;-91
2022/07/14 11:06:09;;;;;;;15.93;7.78;;;;;;;22.94;46.36;93615.22;4992765;28;20100;-89
2022/07/14 11:08:37;;;;;;;10.63;6.88;;;;;;;22.95;46.55;93613.91;5011442;28;20095;-93
2022/07/14 11:11:04;;;;;;;9.50;5.70;;;;;;;22.95;46.75;93608.41;5061844;28;20139;-92
2022/07/14 11:13:30;;;;;;;10.35;7.50;;;;;;;22.93;46.87;93602.72;4994118;28;20048;-91
2022/07/14 11:15:56;;;;;;;16.38;9.32;;;;;;;22.99;45.88;93602.56;5028501;28;20041;-94
2022/07/14 11:18:24;;;;;;;42.25;13.32;;;;;;;23.03;46.17;93602.97;5053330;23;20116;-91
2022/07/14 11:21:07;;;;;;;39.35;18.40;;;;;;;23.03;45.24;93600.97;5041392;28;20048;-92
2022/07/14 11:23:36;;;;;;;71.75;31.88;;;;;;;23.04;45.15;93596.94;5030654;28;20052;-90
2022/07/14 11:26:06;;;;;;;70.63;33.42;;;;;;;23.07;45.46;93598.63;5017902;28;20059;-89
2022/07/14 11:28:32;;;;;;;101.65;49.92;;;;;;;23.08;45.36;93591.09;5016746;28;20779;-92
2022/07/14 11:31:17;;;;;;;100.90;47.60;;;;;;;23.05;45.54;93584.63;5014905;28;20040;-90
2022/07/14 11:36:31;;;;;;;151.93;36.25;;;;;;;23.12;45.43;93581.19;5022315;28;20104;-89
2022/07/14 11:39:15;;;;;;;74.75;22.35;;;;;;;23.08;45.70;93571.78;5010782;28;20040;-92
2022/07/14 11:41:47;;;;;;;45.10;15.55;;;;;;;23.09;46.08;93576.75;5063059;28;20044;-89
2022/07/14 11:44:39;;;;;;;18.90;8.05;;;;;;;23.13;45.34;93576.44;5006759;28;21107;-91